Dauntless Aviation
Greetings, Guest! To participate, [sign up for a free account] or [log in]
Airports Europe France

Saint Jean d'Angely


Airport Info


Latitude / Longitude: 45°57'59"N / 0°31'31"W
  45°57.984'N / 0°31.518'W
  45.9664 / -0.5253

Runway Information

Runway 10 /28

Dimensions: 2789 x 164 ft.
Surface: U
Runway 10
Runway 28
Latitude: 45.966636 45.965728
Longitude: -0.528086 -0.518369
Elevation: 243 ft. 243 ft.
Runway true heading: 95.7 275.7

Instrument Procedures

IAPs (Instrument Approach Procedures)

  Visual Approch Chart
Satellite photo at:
Airport distance calculator
Weather Reports


20.0nm SE
LFBG 101030Z AUTO 08004KT 050V130 CAVOK 16/11 Q1012
27.2nm W
LFBH 101030Z AUTO 07007KT CAVOK 15/10 Q1012
34.5nm E
LFBU 101030Z AUTO 10004KT 060V150 CAVOK 18/11 Q1011


20.0nm SE
TAF LFBG 100500Z 1006/1106 04005KT CAVOK PROB30 TEMPO 1006/1007 0800 BCFG
27.2nm W
TAF LFBH 100500Z 1006/1106 07010KT CAVOK TEMPO 1006/1106 07010G20KT
34.5nm E
TAF LFBU 100500Z 1006/1106 02005KT CAVOK TEMPO 1006/1008 0500 FG VV/// TEMPO 1102/1106 MIFG


Dauntless Aviation

© 2007-2015 Dauntless Aviation, all rights reserved
Information provided via PilotNav comes from a variety of official and unofficial data sources. As errors are possible, do not use PilotNav for primary flight planning purposes. Verify any information that you receive via PilotNav with current and canonical charts and other official documents. The material in this database is subject to database copyrights held by Dauntless Aviation and may not be copied without the express permission of Dauntless Aviation - licenses for use of part of all of this data are available for purchase; enquire via the Dauntless Aviation helpdesk. A number of mechanisms and markers exist in the database to protect against and identify infringement / copyright. Automated queries against this website are stictly prohibited, and all activity is logged and analyzed.